sensor_id;sensor_type;location;lat;lon;timestamp;pressure;altitude;pressure_sealevel;temperature;humidity
54369;BME280;40266;52.434;17.056;2022-07-22T00:01:29;100711.92;;;22.24;59.55
54369;BME280;40266;52.434;17.056;2022-07-22T00:04:36;100718.21;;;22.20;59.55
54369;BME280;40266;52.434;17.056;2022-07-22T00:07:22;100719.20;;;22.15;59.71
54369;BME280;40266;52.434;17.056;2022-07-22T00:10:09;100722.29;;;22.11;60.16
54369;BME280;40266;52.434;17.056;2022-07-22T00:12:56;100734.38;;;22.09;60.20
54369;BME280;40266;52.434;17.056;2022-07-22T00:15:50;100736.69;;;22.06;60.51
54369;BME280;40266;52.434;17.056;2022-07-22T00:18:41;100744.91;;;22.03;60.54
54369;BME280;40266;52.434;17.056;2022-07-22T00:21:33;100752.98;;;22.02;60.63
54369;BME280;40266;52.434;17.056;2022-07-22T00:24:25;100752.36;;;22.00;60.77
54369;BME280;40266;52.434;17.056;2022-07-22T00:27:08;100747.21;;;22.00;60.68
54369;BME280;40266;52.434;17.056;2022-07-22T00:30:25;100751.42;;;21.98;60.77
54369;BME280;40266;52.434;17.056;2022-07-22T00:33:09;100749.51;;;21.98;61.02
54369;BME280;40266;52.434;17.056;2022-07-22T00:35:58;100757.08;;;21.96;61.13
54369;BME280;40266;52.434;17.056;2022-07-22T00:38:44;100759.98;;;21.95;61.19
54369;BME280;40266;52.434;17.056;2022-07-22T00:41:32;100768.55;;;21.95;61.25
54369;BME280;40266;52.434;17.056;2022-07-22T00:44:28;100769.12;;;21.94;61.50
54369;BME280;40266;52.434;17.056;2022-07-22T00:47:19;100766.95;;;21.92;61.84
54369;BME280;40266;52.434;17.056;2022-07-22T00:50:05;100762.13;;;21.89;61.77
54369;BME280;40266;52.434;17.056;2022-07-22T00:53:09;100766.75;;;21.87;61.94
54369;BME280;40266;52.434;17.056;2022-07-22T00:56:01;100769.05;;;21.84;62.12
54369;BME280;40266;52.434;17.056;2022-07-22T00:58:46;100778.52;;;21.80;62.52
54369;BME280;40266;52.434;17.056;2022-07-22T01:01:40;100780.82;;;21.78;62.49
54369;BME280;40266;52.434;17.056;2022-07-22T01:04:27;100774.17;;;21.76;62.84
54369;BME280;40266;52.434;17.056;2022-07-22T01:07:17;100767.95;;;21.73;62.95
54369;BME280;40266;52.434;17.056;2022-07-22T01:10:03;100763.80;;;21.71;63.25
54369;BME280;40266;52.434;17.056;2022-07-22T01:12:46;100755.73;;;21.69;63.35
54369;BME280;40266;52.434;17.056;2022-07-22T01:15:30;100758.69;;;21.68;63.61
54369;BME280;40266;52.434;17.056;2022-07-22T01:18:16;100765.50;;;21.67;63.72
54369;BME280;40266;52.434;17.056;2022-07-22T01:21:00;100760.09;;;21.65;63.89
54369;BME280;40266;52.434;17.056;2022-07-22T01:23:44;100751.84;;;21.63;64.00
54369;BME280;40266;52.434;17.056;2022-07-22T01:26:30;100744.55;;;21.61;64.16
54369;BME280;40266;52.434;17.056;2022-07-22T01:29:16;100748.55;;;21.59;64.41
54369;BME280;40266;52.434;17.056;2022-07-22T01:32:02;100752.16;;;21.58;64.48
54369;BME280;40266;52.434;17.056;2022-07-22T01:35:06;100750.14;;;21.57;64.97
54369;BME280;40266;52.434;17.056;2022-07-22T01:37:52;100748.77;;;21.56;64.97
54369;BME280;40266;52.434;17.056;2022-07-22T01:40:35;100744.92;;;21.55;65.17
54369;BME280;40266;52.434;17.056;2022-07-22T01:43:18;100746.80;;;21.53;65.12
54369;BME280;40266;52.434;17.056;2022-07-22T01:46:04;100745.21;;;21.53;65.42
54369;BME280;40266;52.434;17.056;2022-07-22T01:48:50;100744.75;;;21.52;65.63
54369;BME280;40266;52.434;17.056;2022-07-22T01:51:35;100742.89;;;21.50;65.84
54369;BME280;40266;52.434;17.056;2022-07-22T01:54:21;100737.86;;;21.48;66.18
54369;BME280;40266;52.434;17.056;2022-07-22T02:00:07;100740.69;;;21.43;66.36
54369;BME280;40266;52.434;17.056;2022-07-22T02:02:58;100743.13;;;21.40;66.62
54369;BME280;40266;52.434;17.056;2022-07-22T02:05:41;100740.30;;;21.37;66.59
54369;BME280;40266;52.434;17.056;2022-07-22T02:08:34;100739.13;;;21.33;66.73
54369;BME280;40266;52.434;17.056;2022-07-22T02:11:38;100738.30;;;21.26;66.91
54369;BME280;40266;52.434;17.056;2022-07-22T02:14:21;100735.55;;;21.19;66.96
54369;BME280;40266;52.434;17.056;2022-07-22T02:17:13;100741.09;;;21.13;67.28
54369;BME280;40266;52.434;17.056;2022-07-22T02:19:57;100750.98;;;21.05;67.38
54369;BME280;40266;52.434;17.056;2022-07-22T02:22:51;100754.59;;;20.98;67.64
54369;BME280;40266;52.434;17.056;2022-07-22T02:25:47;100745.12;;;20.89;67.78
54369;BME280;40266;52.434;17.056;2022-07-22T02:28:35;100741.10;;;20.82;67.97
54369;BME280;40266;52.434;17.056;2022-07-22T02:31:24;100742.11;;;20.77;68.26
54369;BME280;40266;52.434;17.056;2022-07-22T02:34:10;100751.61;;;20.73;68.57
54369;BME280;40266;52.434;17.056;2022-07-22T02:37:14;100772.33;;;20.67;69.02
54369;BME280;40266;52.434;17.056;2022-07-22T02:40:01;100780.54;;;20.63;69.37
54369;BME280;40266;52.434;17.056;2022-07-22T02:42:48;100775.59;;;20.60;69.61
54369;BME280;40266;52.434;17.056;2022-07-22T02:45:51;100773.41;;;20.58;69.95
54369;BME280;40266;52.434;17.056;2022-07-22T02:48:34;100775.68;;;20.56;69.97
54369;BME280;40266;52.434;17.056;2022-07-22T02:51:22;100782.75;;;20.56;70.05
54369;BME280;40266;52.434;17.056;2022-07-22T02:54:19;100793.39;;;20.56;70.27
54369;BME280;40266;52.434;17.056;2022-07-22T02:57:05;100816.41;;;20.57;70.43
54369;BME280;40266;52.434;17.056;2022-07-22T02:59:51;100804.65;;;20.58;70.69
54369;BME280;40266;52.434;17.056;2022-07-22T03:02:57;100784.93;;;20.58;70.74
54369;BME280;40266;52.434;17.056;2022-07-22T03:05:51;100780.12;;;20.58;71.19
54369;BME280;40266;52.434;17.056;2022-07-22T03:09:11;100780.17;;;20.58;71.38
54369;BME280;40266;52.434;17.056;2022-07-22T03:12:00;100775.31;;;20.55;71.45
54369;BME280;40266;52.434;17.056;2022-07-22T03:14:54;100768.61;;;20.58;71.22
54369;BME280;40266;52.434;17.056;2022-07-22T03:17:40;100759.14;;;20.59;71.29
54369;BME280;40266;52.434;17.056;2022-07-22T03:20:23;100749.64;;;20.61;71.44
54369;BME280;40266;52.434;17.056;2022-07-22T03:23:16;100753.31;;;20.62;71.82
54369;BME280;40266;52.434;17.056;2022-07-22T03:26:10;100754.49;;;20.63;72.03
54369;BME280;40266;52.434;17.056;2022-07-22T03:29:13;100765.76;;;20.64;72.37
54369;BME280;40266;52.434;17.056;2022-07-22T03:32:09;100779.13;;;20.66;72.17
54369;BME280;40266;52.434;17.056;2022-07-22T03:35:17;100790.96;;;20.67;72.82
54369;BME280;40266;52.434;17.056;2022-07-22T03:38:05;100795.54;;;20.65;73.93
54369;BME280;40266;52.434;17.056;2022-07-22T03:41:00;100786.22;;;20.60;74.87
54369;BME280;40266;52.434;17.056;2022-07-22T03:43:45;100781.95;;;20.54;75.62
54369;BME280;40266;52.434;17.056;2022-07-22T03:46:34;100770.92;;;20.45;76.22
54369;BME280;40266;52.434;17.056;2022-07-22T03:49:22;100768.49;;;20.38;76.92
54369;BME280;40266;52.434;17.056;2022-07-22T03:52:05;100755.52;;;20.32;77.18
54369;BME280;40266;52.434;17.056;2022-07-22T03:55:00;100751.16;;;20.28;77.51
54369;BME280;40266;52.434;17.056;2022-07-22T03:57:44;100748.73;;;20.23;78.10
54369;BME280;40266;52.434;17.056;2022-07-22T04:00:36;100761.54;;;20.20;78.86
54369;BME280;40266;52.434;17.056;2022-07-22T04:03:24;100770.12;;;20.15;79.06
54369;BME280;40266;52.434;17.056;2022-07-22T04:06:24;100773.80;;;20.13;79.52
54369;BME280;40266;52.434;17.056;2022-07-22T04:09:22;100769.73;;;20.09;80.21
54369;BME280;40266;52.434;17.056;2022-07-22T04:15:26;100771.34;;;19.99;80.44
54369;BME280;40266;52.434;17.056;2022-07-22T04:18:10;100775.89;;;19.97;80.55
54369;BME280;40266;52.434;17.056;2022-07-22T04:20:59;100783.31;;;19.95;80.61
54369;BME280;40266;52.434;17.056;2022-07-22T04:24:17;100782.77;;;19.92;81.37
54369;BME280;40266;52.434;17.056;2022-07-22T04:27:05;100781.59;;;19.87;81.71
54369;BME280;40266;52.434;17.056;2022-07-22T04:30:09;100773.08;;;19.84;81.89
54369;BME280;40266;52.434;17.056;2022-07-22T04:33:26;100773.91;;;19.85;82.08
54369;BME280;40266;52.434;17.056;2022-07-22T04:36:10;100773.64;;;19.87;82.72
54369;BME280;40266;52.434;17.056;2022-07-22T04:38:57;100777.92;;;19.90;83.12
54369;BME280;40266;52.434;17.056;2022-07-22T04:41:52;100772.63;;;19.92;83.48
54369;BME280;40266;52.434;17.056;2022-07-22T04:44:46;100770.58;;;19.94;83.69
54369;BME280;40266;52.434;17.056;2022-07-22T04:47:30;100774.02;;;19.96;83.81
54369;BME280;40266;52.434;17.056;2022-07-22T04:50:18;100782.42;;;19.98;83.71
54369;BME280;40266;52.434;17.056;2022-07-22T04:53:08;100791.73;;;19.99;83.93
54369;BME280;40266;52.434;17.056;2022-07-22T04:56:13;100802.61;;;20.01;84.17
54369;BME280;40266;52.434;17.056;2022-07-22T05:01:57;100821.96;;;20.05;85.05
54369;BME280;40266;52.434;17.056;2022-07-22T05:04:41;100821.79;;;20.08;85.10
54369;BME280;40266;52.434;17.056;2022-07-22T05:07:25;100820.68;;;20.15;85.27
54369;BME280;40266;52.434;17.056;2022-07-22T05:10:14;100821.23;;;20.27;85.61
54369;BME280;40266;52.434;17.056;2022-07-22T05:13:04;100817.64;;;20.37;85.94
54369;BME280;40266;52.434;17.056;2022-07-22T05:15:48;100818.63;;;20.42;85.76
54369;BME280;40266;52.434;17.056;2022-07-22T05:18:34;100826.68;;;20.47;85.99
54369;BME280;40266;52.434;17.056;2022-07-22T05:21:21;100830.45;;;20.53;85.99
54369;BME280;40266;52.434;17.056;2022-07-22T05:24:05;100829.40;;;20.63;86.07
54369;BME280;40266;52.434;17.056;2022-07-22T05:26:48;100826.73;;;20.90;85.99
54369;BME280;40266;52.434;17.056;2022-07-22T05:29:40;100827.30;;;20.93;85.53
54369;BME280;40266;52.434;17.056;2022-07-22T05:32:23;100826.14;;;20.97;85.52
54369;BME280;40266;52.434;17.056;2022-07-22T05:35:12;100825.43;;;21.12;85.69
54369;BME280;40266;52.434;17.056;2022-07-22T05:38:15;100825.98;;;21.27;85.28
54369;BME280;40266;52.434;17.056;2022-07-22T05:41:02;100828.98;;;21.36;85.59
54369;BME280;40266;52.434;17.056;2022-07-22T05:43:49;100828.38;;;21.47;85.30
54369;BME280;40266;52.434;17.056;2022-07-22T05:46:33;100824.54;;;21.69;84.96
54369;BME280;40266;52.434;17.056;2022-07-22T05:49:20;100821.69;;;21.87;84.72
54369;BME280;40266;52.434;17.056;2022-07-22T05:52:18;100824.39;;;21.98;84.40
54369;BME280;40266;52.434;17.056;2022-07-22T05:55:07;100813.19;;;22.06;84.42
54369;BME280;40266;52.434;17.056;2022-07-22T05:57:51;100802.92;;;22.13;83.81
54369;BME280;40266;52.434;17.056;2022-07-22T06:00:37;100800.79;;;22.28;83.11
54369;BME280;40266;52.434;17.056;2022-07-22T06:03:22;100795.36;;;22.67;82.83
54369;BME280;40266;52.434;17.056;2022-07-22T06:06:08;100797.13;;;23.50;81.08
54369;BME280;40266;52.434;17.056;2022-07-22T06:08:51;100794.55;;;23.59;79.93
54369;BME280;40266;52.434;17.056;2022-07-22T06:11:37;100786.75;;;23.76;78.92
54369;BME280;40266;52.434;17.056;2022-07-22T06:14:20;100782.74;;;24.00;77.79
54369;BME280;40266;52.434;17.056;2022-07-22T06:17:05;100780.73;;;24.73;76.08
54369;BME280;40266;52.434;17.056;2022-07-22T06:19:48;100773.80;;;25.50;74.56
54369;BME280;40266;52.434;17.056;2022-07-22T06:22:31;100771.63;;;25.48;73.40
54369;BME280;40266;52.434;17.056;2022-07-22T06:25:14;100770.50;;;25.44;73.20
54369;BME280;40266;52.434;17.056;2022-07-22T06:28:18;100770.29;;;25.31;73.33
54369;BME280;40266;52.434;17.056;2022-07-22T06:31:01;100771.38;;;25.15;72.68
54369;BME280;40266;52.434;17.056;2022-07-22T06:33:45;100772.38;;;25.08;72.33
54369;BME280;40266;52.434;17.056;2022-07-22T06:36:28;100769.11;;;25.55;71.60
54369;BME280;40266;52.434;17.056;2022-07-22T06:39:14;100773.16;;;25.65;71.02
54369;BME280;40266;52.434;17.056;2022-07-22T06:42:16;100770.58;;;25.45;70.44
54369;BME280;40266;52.434;17.056;2022-07-22T06:45:10;100768.52;;;25.36;70.84
54369;BME280;40266;52.434;17.056;2022-07-22T06:47:56;100765.40;;;25.23;70.70
54369;BME280;40266;52.434;17.056;2022-07-22T06:50:39;100759.52;;;25.11;70.72
54369;BME280;40266;52.434;17.056;2022-07-22T06:53:27;100758.54;;;25.07;70.66
54369;BME280;40266;52.434;17.056;2022-07-22T06:56:14;100755.45;;;24.93;70.60
54369;BME280;40266;52.434;17.056;2022-07-22T06:58:58;100760.21;;;25.04;70.22
54369;BME280;40266;52.434;17.056;2022-07-22T07:01:42;100752.58;;;25.03;70.73
54369;BME280;40266;52.434;17.056;2022-07-22T07:04:28;100760.19;;;24.99;70.83
54369;BME280;40266;52.434;17.056;2022-07-22T07:07:11;100757.80;;;25.05;70.63
54369;BME280;40266;52.434;17.056;2022-07-22T07:10:11;100762.48;;;25.05;70.63
54369;BME280;40266;52.434;17.056;2022-07-22T07:13:08;100761.10;;;24.99;70.88
54369;BME280;40266;52.434;17.056;2022-07-22T07:15:57;100765.56;;;24.92;70.88
54369;BME280;40266;52.434;17.056;2022-07-22T07:18:40;100768.99;;;24.85;70.73
54369;BME280;40266;52.434;17.056;2022-07-22T07:21:24;100765.11;;;24.75;70.53
54369;BME280;40266;52.434;17.056;2022-07-22T07:24:13;100767.76;;;24.77;70.96
54369;BME280;40266;52.434;17.056;2022-07-22T07:26:56;100769.02;;;24.79;71.28
54369;BME280;40266;52.434;17.056;2022-07-22T07:29:39;100769.84;;;24.81;70.26
54369;BME280;40266;52.434;17.056;2022-07-22T07:32:25;100771.95;;;24.83;69.56
54369;BME280;40266;52.434;17.056;2022-07-22T07:35:10;100770.95;;;24.80;69.58
54369;BME280;40266;52.434;17.056;2022-07-22T07:37:54;100773.55;;;24.77;68.49
54369;BME280;40266;52.434;17.056;2022-07-22T07:40:37;100775.23;;;24.76;68.69
54369;BME280;40266;52.434;17.056;2022-07-22T07:43:21;100779.59;;;24.79;68.87
54369;BME280;40266;52.434;17.056;2022-07-22T07:46:04;100776.59;;;24.81;68.21
54369;BME280;40266;52.434;17.056;2022-07-22T07:48:48;100779.48;;;24.85;67.54
54369;BME280;40266;52.434;17.056;2022-07-22T07:51:34;100780.58;;;24.90;67.57
54369;BME280;40266;52.434;17.056;2022-07-22T07:54:18;100784.20;;;24.92;67.05
54369;BME280;40266;52.434;17.056;2022-07-22T07:57:06;100783.08;;;24.99;66.94
54369;BME280;40266;52.434;17.056;2022-07-22T07:59:49;100782.89;;;25.02;66.44
54369;BME280;40266;52.434;17.056;2022-07-22T08:02:34;100778.44;;;25.04;66.41
54369;BME280;40266;52.434;17.056;2022-07-22T08:05:19;100780.43;;;25.11;66.52
54369;BME280;40266;52.434;17.056;2022-07-22T08:08:08;100779.63;;;25.17;65.44
54369;BME280;40266;52.434;17.056;2022-07-22T08:11:04;100781.86;;;25.23;65.22
54369;BME280;40266;52.434;17.056;2022-07-22T08:13:47;100779.64;;;25.24;64.55
54369;BME280;40266;52.434;17.056;2022-07-22T08:17:09;100779.77;;;25.36;65.03
54369;BME280;40266;52.434;17.056;2022-07-22T08:19:52;100775.05;;;25.53;64.01
54369;BME280;40266;52.434;17.056;2022-07-22T08:22:39;100780.49;;;25.59;63.40
54369;BME280;40266;52.434;17.056;2022-07-22T08:25:28;100779.05;;;25.63;62.84
54369;BME280;40266;52.434;17.056;2022-07-22T08:28:15;100775.25;;;25.73;62.31
54369;BME280;40266;52.434;17.056;2022-07-22T08:30:59;100777.81;;;25.99;62.18
54369;BME280;40266;52.434;17.056;2022-07-22T08:33:47;100781.23;;;26.25;62.22
54369;BME280;40266;52.434;17.056;2022-07-22T08:36:41;100781.66;;;26.66;61.52
54369;BME280;40266;52.434;17.056;2022-07-22T08:39:24;100781.33;;;27.23;60.40
54369;BME280;40266;52.434;17.056;2022-07-22T08:42:08;100788.58;;;28.54;56.79
54369;BME280;40266;52.434;17.056;2022-07-22T08:44:52;100784.54;;;30.30;54.02
54369;BME280;40266;52.434;17.056;2022-07-22T08:47:40;100780.82;;;32.19;51.51
54369;BME280;40266;52.434;17.056;2022-07-22T08:50:41;100785.23;;;32.70;47.85
54369;BME280;40266;52.434;17.056;2022-07-22T08:53:34;100786.39;;;33.61;45.98
54369;BME280;40266;52.434;17.056;2022-07-22T08:56:22;100778.73;;;34.82;45.23
54369;BME280;40266;52.434;17.056;2022-07-22T08:59:06;100783.59;;;35.20;41.78
54369;BME280;40266;52.434;17.056;2022-07-22T09:02:08;100784.45;;;34.55;41.36
54369;BME280;40266;52.434;17.056;2022-07-22T09:05:05;100792.92;;;33.77;42.48
54369;BME280;40266;52.434;17.056;2022-07-22T09:08:09;100790.34;;;32.90;42.72
54369;BME280;40266;52.434;17.056;2022-07-22T09:11:20;100790.92;;;32.04;44.04
54369;BME280;40266;52.434;17.056;2022-07-22T09:14:22;100781.41;;;31.47;44.59
54369;BME280;40266;52.434;17.056;2022-07-22T09:17:31;100778.09;;;31.02;44.45
54369;BME280;40266;52.434;17.056;2022-07-22T09:20:58;100773.44;;;30.59;45.70
54369;BME280;40266;52.434;17.056;2022-07-22T09:24:05;100775.62;;;30.47;46.14
54369;BME280;40266;52.434;17.056;2022-07-22T09:26:48;100771.27;;;30.46;46.83
54369;BME280;40266;52.434;17.056;2022-07-22T09:29:58;100771.89;;;30.47;45.81
54369;BME280;40266;52.434;17.056;2022-07-22T09:32:47;100773.21;;;30.23;46.29
54369;BME280;40266;52.434;17.056;2022-07-22T09:35:47;100772.98;;;29.98;45.50
54369;BME280;40266;52.434;17.056;2022-07-22T09:38:34;100773.38;;;29.60;45.20
54369;BME280;40266;52.434;17.056;2022-07-22T09:41:18;100776.65;;;29.27;46.14
54369;BME280;40266;52.434;17.056;2022-07-22T09:44:20;100775.69;;;29.05;46.90
54369;BME280;40266;52.434;17.056;2022-07-22T09:47:05;100777.52;;;28.73;47.79
54369;BME280;40266;52.434;17.056;2022-07-22T09:50:03;100776.56;;;28.47;47.65
54369;BME280;40266;52.434;17.056;2022-07-22T09:52:58;100772.08;;;28.31;48.23
54369;BME280;40266;52.434;17.056;2022-07-22T09:55:47;100772.39;;;28.27;48.88
54369;BME280;40266;52.434;17.056;2022-07-22T09:58:31;100768.70;;;28.18;48.57
54369;BME280;40266;52.434;17.056;2022-07-22T10:01:15;100765.66;;;28.06;48.02
54369;BME280;40266;52.434;17.056;2022-07-22T10:04:00;100765.73;;;28.11;48.88
54369;BME280;40266;52.434;17.056;2022-07-22T10:06:47;100767.92;;;28.09;48.64
54369;BME280;40266;52.434;17.056;2022-07-22T10:09:34;100772.11;;;27.90;49.25
54369;BME280;40266;52.434;17.056;2022-07-22T10:12:18;100771.80;;;27.75;49.90
54369;BME280;40266;52.434;17.056;2022-07-22T10:15:05;100772.99;;;27.64;50.04
54369;BME280;40266;52.434;17.056;2022-07-22T10:17:56;100774.08;;;27.53;50.32
54369;BME280;40266;52.434;17.056;2022-07-22T10:20:39;100769.53;;;27.40;50.15
54369;BME280;40266;52.434;17.056;2022-07-22T10:23:22;100766.73;;;27.39;50.39
54369;BME280;40266;52.434;17.056;2022-07-22T10:26:06;100769.59;;;27.57;50.53
54369;BME280;40266;52.434;17.056;2022-07-22T10:29:26;100766.58;;;27.79;50.36
54369;BME280;40266;52.434;17.056;2022-07-22T10:37:48;100765.20;;;27.89;49.52
54369;BME280;40266;52.434;17.056;2022-07-22T10:40:47;100766.27;;;27.79;49.21
54369;BME280;40266;52.434;17.056;2022-07-22T10:46:52;100755.59;;;27.98;48.85
54369;BME280;40266;52.434;17.056;2022-07-22T10:49:35;100751.02;;;28.15;47.72
54369;BME280;40266;52.434;17.056;2022-07-22T10:52:18;100753.27;;;28.24;46.69
54369;BME280;40266;52.434;17.056;2022-07-22T10:55:20;100755.77;;;28.38;46.64
54369;BME280;40266;52.434;17.056;2022-07-22T10:58:40;100758.83;;;28.60;46.75
54369;BME280;40266;52.434;17.056;2022-07-22T11:01:29;100753.20;;;28.58;45.51
54369;BME280;40266;52.434;17.056;2022-07-22T11:04:24;100762.41;;;28.56;46.42
54369;BME280;40266;52.434;17.056;2022-07-22T11:07:08;100765.55;;;28.45;45.17
54369;BME280;40266;52.434;17.056;2022-07-22T11:09:51;100767.55;;;28.31;46.33
54369;BME280;40266;52.434;17.056;2022-07-22T11:12:34;100758.27;;;28.34;46.39
54369;BME280;40266;52.434;17.056;2022-07-22T11:15:25;100757.11;;;28.47;45.78
54369;BME280;40266;52.434;17.056;2022-07-22T11:18:08;100748.22;;;28.64;44.95
54369;BME280;40266;52.434;17.056;2022-07-22T11:20:51;100759.66;;;28.84;45.01
54369;BME280;40266;52.434;17.056;2022-07-22T11:23:40;100755.40;;;28.99;45.43
54369;BME280;40266;52.434;17.056;2022-07-22T11:26:33;100749.89;;;28.98;44.58
54369;BME280;40266;52.434;17.056;2022-07-22T11:32:14;100752.75;;;29.02;45.09
54369;BME280;40266;52.434;17.056;2022-07-22T11:34:58;100751.59;;;29.15;44.98
54369;BME280;40266;52.434;17.056;2022-07-22T11:37:41;100751.91;;;29.21;43.78
54369;BME280;40266;52.434;17.056;2022-07-22T11:40:31;100751.59;;;29.28;44.17
54369;BME280;40266;52.434;17.056;2022-07-22T11:43:15;100752.70;;;29.39;43.06
54369;BME280;40266;52.434;17.056;2022-07-22T11:45:59;100748.86;;;29.41;42.48
54369;BME280;40266;52.434;17.056;2022-07-22T11:48:43;100745.63;;;29.34;42.93
54369;BME280;40266;52.434;17.056;2022-07-22T11:51:30;100751.02;;;29.36;43.43
54369;BME280;40266;52.434;17.056;2022-07-22T11:54:14;100748.42;;;29.29;42.98
54369;BME280;40266;52.434;17.056;2022-07-22T11:56:57;100748.00;;;29.18;42.91
54369;BME280;40266;52.434;17.056;2022-07-22T11:59:41;100740.97;;;29.05;42.92
54369;BME280;40266;52.434;17.056;2022-07-22T12:02:24;100740.33;;;28.99;43.90
54369;BME280;40266;52.434;17.056;2022-07-22T12:05:08;100736.42;;;28.98;43.49
54369;BME280;40266;52.434;17.056;2022-07-22T12:08:14;100728.08;;;29.02;43.72
54369;BME280;40266;52.434;17.056;2022-07-22T12:10:57;100731.39;;;29.21;42.65
54369;BME280;40266;52.434;17.056;2022-07-22T12:13:48;100733.64;;;29.33;42.37
54369;BME280;40266;52.434;17.056;2022-07-22T12:16:32;100732.87;;;29.32;42.20
54369;BME280;40266;52.434;17.056;2022-07-22T12:19:16;100737.80;;;29.31;42.60
54369;BME280;40266;52.434;17.056;2022-07-22T12:25:07;100732.35;;;29.39;41.88
54369;BME280;40266;52.434;17.056;2022-07-22T12:28:01;100726.48;;;29.40;42.15
54369;BME280;40266;52.434;17.056;2022-07-22T12:30:44;100724.56;;;29.38;41.91
54369;BME280;40266;52.434;17.056;2022-07-22T12:33:28;100722.13;;;29.46;41.95
54369;BME280;40266;52.434;17.056;2022-07-22T12:36:12;100719.63;;;29.61;41.68
54369;BME280;40266;52.434;17.056;2022-07-22T12:38:55;100715.97;;;29.63;41.35
54369;BME280;40266;52.434;17.056;2022-07-22T12:41:48;100716.29;;;29.55;41.61
54369;BME280;40266;52.434;17.056;2022-07-22T12:44:36;100712.80;;;29.42;41.29
54369;BME280;40266;52.434;17.056;2022-07-22T12:47:40;100712.80;;;29.33;41.51
54369;BME280;40266;52.434;17.056;2022-07-22T12:50:40;100716.13;;;29.23;40.89
54369;BME280;40266;52.434;17.056;2022-07-22T12:53:24;100710.48;;;29.06;41.31
54369;BME280;40266;52.434;17.056;2022-07-22T12:56:08;100714.66;;;28.98;41.90
54369;BME280;40266;52.434;17.056;2022-07-22T12:58:53;100714.10;;;28.91;42.08
54369;BME280;40266;52.434;17.056;2022-07-22T13:01:36;100713.39;;;28.91;42.17
54369;BME280;40266;52.434;17.056;2022-07-22T13:04:22;100712.75;;;28.92;41.96
54369;BME280;40266;52.434;17.056;2022-07-22T13:07:07;100711.34;;;28.97;42.25
54369;BME280;40266;52.434;17.056;2022-07-22T13:09:55;100709.13;;;29.03;41.97
54369;BME280;40266;52.434;17.056;2022-07-22T13:12:39;100708.04;;;29.05;41.80
54369;BME280;40266;52.434;17.056;2022-07-22T13:15:22;100702.16;;;29.05;41.99
54369;BME280;40266;52.434;17.056;2022-07-22T13:18:05;100700.10;;;28.96;41.89
54369;BME280;40266;52.434;17.056;2022-07-22T13:20:48;100703.17;;;28.90;41.36
54369;BME280;40266;52.434;17.056;2022-07-22T13:23:31;100699.52;;;28.98;42.13
54369;BME280;40266;52.434;17.056;2022-07-22T13:26:14;100701.70;;;29.15;41.61
54369;BME280;40266;52.434;17.056;2022-07-22T13:28:57;100699.74;;;29.25;41.01
54369;BME280;40266;52.434;17.056;2022-07-22T13:31:40;100693.94;;;29.33;40.80
54369;BME280;40266;52.434;17.056;2022-07-22T13:34:43;100697.93;;;29.31;41.22
54369;BME280;40266;52.434;17.056;2022-07-22T13:37:26;100699.31;;;29.26;41.64
54369;BME280;40266;52.434;17.056;2022-07-22T13:40:10;100690.70;;;29.29;41.09
54369;BME280;40266;52.434;17.056;2022-07-22T13:42:53;100691.69;;;29.37;40.74
54369;BME280;40266;52.434;17.056;2022-07-22T13:45:36;100700.23;;;29.46;40.62
54369;BME280;40266;52.434;17.056;2022-07-22T13:48:19;100698.20;;;29.41;40.19
54369;BME280;40266;52.434;17.056;2022-07-22T13:51:03;100706.83;;;29.30;40.17
54369;BME280;40266;52.434;17.056;2022-07-22T13:53:47;100701.52;;;29.27;40.58
54369;BME280;40266;52.434;17.056;2022-07-22T13:56:31;100702.40;;;29.31;40.72
54369;BME280;40266;52.434;17.056;2022-07-22T13:59:15;100701.33;;;29.31;40.90
54369;BME280;40266;52.434;17.056;2022-07-22T14:01:58;100705.83;;;29.27;40.51
54369;BME280;40266;52.434;17.056;2022-07-22T14:04:42;100704.52;;;29.14;40.52
54369;BME280;40266;52.434;17.056;2022-07-22T14:07:25;100703.82;;;29.12;40.65
54369;BME280;40266;52.434;17.056;2022-07-22T14:10:09;100703.90;;;29.11;40.80
54369;BME280;40266;52.434;17.056;2022-07-22T14:12:52;100703.33;;;29.02;40.52
54369;BME280;40266;52.434;17.056;2022-07-22T14:15:35;100705.14;;;28.92;40.66
54369;BME280;40266;52.434;17.056;2022-07-22T14:18:18;100707.97;;;28.95;40.57
54369;BME280;40266;52.434;17.056;2022-07-22T14:21:02;100706.23;;;28.92;40.78
54369;BME280;40266;52.434;17.056;2022-07-22T14:23:44;100704.02;;;28.81;40.66
54369;BME280;40266;52.434;17.056;2022-07-22T14:26:28;100703.63;;;28.84;40.82
54369;BME280;40266;52.434;17.056;2022-07-22T14:29:14;100699.77;;;28.77;40.66
54369;BME280;40266;52.434;17.056;2022-07-22T14:31:57;100705.34;;;28.67;41.16
54369;BME280;40266;52.434;17.056;2022-07-22T14:34:40;100708.41;;;28.61;41.28
54369;BME280;40266;52.434;17.056;2022-07-22T14:37:23;100703.41;;;28.63;41.67
54369;BME280;40266;52.434;17.056;2022-07-22T14:40:10;100692.00;;;28.66;41.77
54369;BME280;40266;52.434;17.056;2022-07-22T14:42:53;100696.52;;;28.71;41.65
54369;BME280;40266;52.434;17.056;2022-07-22T14:45:56;100700.09;;;28.77;41.49
54369;BME280;40266;52.434;17.056;2022-07-22T14:48:39;100700.96;;;28.79;41.35
54369;BME280;40266;52.434;17.056;2022-07-22T14:51:23;100699.26;;;28.78;41.21
54369;BME280;40266;52.434;17.056;2022-07-22T14:54:06;100699.94;;;28.85;41.00
54369;BME280;40266;52.434;17.056;2022-07-22T14:56:51;100701.50;;;28.83;41.04